sensor_id;sensor_type;location;lat;lon;timestamp;temperature;humidity
4594;DHT22;2309;51.674;8.368;2023-05-19T00:01:15;7.40;99.90
4594;DHT22;2309;51.674;8.368;2023-05-19T00:03:49;7.30;99.90
4594;DHT22;2309;51.674;8.368;2023-05-19T00:06:10;7.30;99.90
4594;DHT22;2309;51.674;8.368;2023-05-19T00:08:40;7.30;99.90
4594;DHT22;2309;51.674;8.368;2023-05-19T00:11:08;7.30;99.90
4594;DHT22;2309;51.674;8.368;2023-05-19T00:13:41;7.20;99.90
4594;DHT22;2309;51.674;8.368;2023-05-19T00:16:10;7.10;99.90
4594;DHT22;2309;51.674;8.368;2023-05-19T00:18:39;7.00;99.90
4594;DHT22;2309;51.674;8.368;2023-05-19T00:21:10;7.00;99.90
4594;DHT22;2309;51.674;8.368;2023-05-19T00:23:38;6.90;99.90
4594;DHT22;2309;51.674;8.368;2023-05-19T00:26:05;6.90;99.90
4594;DHT22;2309;51.674;8.368;2023-05-19T00:28:33;6.90;99.90
4594;DHT22;2309;51.674;8.368;2023-05-19T00:31:00;6.90;99.90
4594;DHT22;2309;51.674;8.368;2023-05-19T00:33:27;6.90;99.90
4594;DHT22;2309;51.674;8.368;2023-05-19T00:35:54;6.70;99.90
4594;DHT22;2309;51.674;8.368;2023-05-19T00:38:21;6.70;99.90
4594;DHT22;2309;51.674;8.368;2023-05-19T00:40:49;6.70;99.90
4594;DHT22;2309;51.674;8.368;2023-05-19T00:43:18;6.70;99.90
4594;DHT22;2309;51.674;8.368;2023-05-19T00:45:53;6.70;99.90
4594;DHT22;2309;51.674;8.368;2023-05-19T00:48:23;6.60;99.90
4594;DHT22;2309;51.674;8.368;2023-05-19T00:50:56;6.60;99.90
4594;DHT22;2309;51.674;8.368;2023-05-19T00:53:27;6.60;99.90
4594;DHT22;2309;51.674;8.368;2023-05-19T00:55:58;6.50;99.90
4594;DHT22;2309;51.674;8.368;2023-05-19T01:00:56;6.40;99.90
4594;DHT22;2309;51.674;8.368;2023-05-19T01:03:30;6.30;99.90
4594;DHT22;2309;51.674;8.368;2023-05-19T01:06:04;6.30;99.90
4594;DHT22;2309;51.674;8.368;2023-05-19T01:08:32;6.30;99.90
4594;DHT22;2309;51.674;8.368;2023-05-19T01:11:00;6.30;99.90
4594;DHT22;2309;51.674;8.368;2023-05-19T01:13:27;6.30;99.90
4594;DHT22;2309;51.674;8.368;2023-05-19T01:16:13;6.30;99.90
4594;DHT22;2309;51.674;8.368;2023-05-19T01:18:24;6.30;99.90
4594;DHT22;2309;51.674;8.368;2023-05-19T01:20:58;6.30;99.90
4594;DHT22;2309;51.674;8.368;2023-05-19T01:23:38;6.20;99.90
4594;DHT22;2309;51.674;8.368;2023-05-19T01:28:48;6.20;99.90
4594;DHT22;2309;51.674;8.368;2023-05-19T01:31:06;6.10;99.90
4594;DHT22;2309;51.674;8.368;2023-05-19T01:33:39;6.10;99.90
4594;DHT22;2309;51.674;8.368;2023-05-19T01:36:21;6.10;99.90
4594;DHT22;2309;51.674;8.368;2023-05-19T01:38:53;6.10;99.90
4594;DHT22;2309;51.674;8.368;2023-05-19T01:41:23;6.00;99.90
4594;DHT22;2309;51.674;8.368;2023-05-19T01:44:00;6.00;99.90
4594;DHT22;2309;51.674;8.368;2023-05-19T01:46:36;6.00;99.90
4594;DHT22;2309;51.674;8.368;2023-05-19T01:49:08;5.90;99.90
4594;DHT22;2309;51.674;8.368;2023-05-19T01:51:38;5.90;99.90
4594;DHT22;2309;51.674;8.368;2023-05-19T01:54:11;5.90;99.90
4594;DHT22;2309;51.674;8.368;2023-05-19T01:56:49;5.80;99.90
4594;DHT22;2309;51.674;8.368;2023-05-19T01:59:15;5.80;99.90
4594;DHT22;2309;51.674;8.368;2023-05-19T02:01:46;5.70;99.90
4594;DHT22;2309;51.674;8.368;2023-05-19T02:04:51;5.60;99.90
4594;DHT22;2309;51.674;8.368;2023-05-19T02:06:45;5.60;99.90
4594;DHT22;2309;51.674;8.368;2023-05-19T02:11:43;5.60;99.90
4594;DHT22;2309;51.674;8.368;2023-05-19T02:16:39;5.50;99.90
4594;DHT22;2309;51.674;8.368;2023-05-19T02:19:06;5.50;99.90
4594;DHT22;2309;51.674;8.368;2023-05-19T02:24:01;5.40;99.90
4594;DHT22;2309;51.674;8.368;2023-05-19T02:26:29;5.40;99.90
4594;DHT22;2309;51.674;8.368;2023-05-19T02:28:56;5.30;99.90
4594;DHT22;2309;51.674;8.368;2023-05-19T02:31:25;5.30;99.90
4594;DHT22;2309;51.674;8.368;2023-05-19T02:33:57;5.20;99.90
4594;DHT22;2309;51.674;8.368;2023-05-19T02:36:25;5.20;99.90
4594;DHT22;2309;51.674;8.368;2023-05-19T02:38:58;5.10;99.90
4594;DHT22;2309;51.674;8.368;2023-05-19T02:41:27;5.10;99.90
4594;DHT22;2309;51.674;8.368;2023-05-19T02:44:01;5.10;99.90
4594;DHT22;2309;51.674;8.368;2023-05-19T02:46:27;5.20;99.90
4594;DHT22;2309;51.674;8.368;2023-05-19T02:48:59;5.10;99.90
4594;DHT22;2309;51.674;8.368;2023-05-19T02:51:31;5.10;99.90
4594;DHT22;2309;51.674;8.368;2023-05-19T02:54:03;5.10;99.90
4594;DHT22;2309;51.674;8.368;2023-05-19T02:56:31;5.00;99.90
4594;DHT22;2309;51.674;8.368;2023-05-19T02:59:02;5.00;99.90
4594;DHT22;2309;51.674;8.368;2023-05-19T03:01:32;5.00;99.90
4594;DHT22;2309;51.674;8.368;2023-05-19T03:04:04;5.00;99.90
4594;DHT22;2309;51.674;8.368;2023-05-19T03:06:36;5.00;99.90
4594;DHT22;2309;51.674;8.368;2023-05-19T03:09:06;4.90;99.90
4594;DHT22;2309;51.674;8.368;2023-05-19T03:11:45;4.80;99.90
4594;DHT22;2309;51.674;8.368;2023-05-19T03:14:13;4.80;99.90
4594;DHT22;2309;51.674;8.368;2023-05-19T03:16:45;4.80;99.90
4594;DHT22;2309;51.674;8.368;2023-05-19T03:19:13;4.80;99.90
4594;DHT22;2309;51.674;8.368;2023-05-19T03:21:48;4.90;99.90
4594;DHT22;2309;51.674;8.368;2023-05-19T03:26:46;4.90;99.90
4594;DHT22;2309;51.674;8.368;2023-05-19T03:29:17;4.90;99.90
4594;DHT22;2309;51.674;8.368;2023-05-19T03:31:47;5.00;99.90
4594;DHT22;2309;51.674;8.368;2023-05-19T03:34:17;4.90;99.90
4594;DHT22;2309;51.674;8.368;2023-05-19T03:36:44;4.80;99.90
4594;DHT22;2309;51.674;8.368;2023-05-19T03:39:12;4.80;99.90
4594;DHT22;2309;51.674;8.368;2023-05-19T03:41:45;4.90;99.90
4594;DHT22;2309;51.674;8.368;2023-05-19T03:44:10;4.90;99.90
4594;DHT22;2309;51.674;8.368;2023-05-19T03:46:37;4.80;99.90
4594;DHT22;2309;51.674;8.368;2023-05-19T03:49:06;4.80;99.90
4594;DHT22;2309;51.674;8.368;2023-05-19T03:51:33;4.90;99.90
4594;DHT22;2309;51.674;8.368;2023-05-19T03:54:01;5.00;99.90
4594;DHT22;2309;51.674;8.368;2023-05-19T03:56:30;5.00;99.90
4594;DHT22;2309;51.674;8.368;2023-05-19T03:59:01;5.10;99.90
4594;DHT22;2309;51.674;8.368;2023-05-19T04:01:29;5.00;99.90
4594;DHT22;2309;51.674;8.368;2023-05-19T04:06:24;5.10;99.90
4594;DHT22;2309;51.674;8.368;2023-05-19T04:08:52;5.10;99.90
4594;DHT22;2309;51.674;8.368;2023-05-19T04:11:20;5.20;99.90
4594;DHT22;2309;51.674;8.368;2023-05-19T04:13:47;5.30;99.90
4594;DHT22;2309;51.674;8.368;2023-05-19T04:16:14;5.20;99.90
4594;DHT22;2309;51.674;8.368;2023-05-19T04:18:41;5.30;99.90
4594;DHT22;2309;51.674;8.368;2023-05-19T04:21:09;5.40;99.90
4594;DHT22;2309;51.674;8.368;2023-05-19T04:23:36;5.40;99.90
4594;DHT22;2309;51.674;8.368;2023-05-19T04:26:05;5.40;99.90
4594;DHT22;2309;51.674;8.368;2023-05-19T04:28:33;5.50;99.90
4594;DHT22;2309;51.674;8.368;2023-05-19T04:31:05;5.50;99.90
4594;DHT22;2309;51.674;8.368;2023-05-19T04:33:37;5.60;99.90
4594;DHT22;2309;51.674;8.368;2023-05-19T04:36:08;5.60;99.90
4594;DHT22;2309;51.674;8.368;2023-05-19T04:38:38;5.70;99.90
4594;DHT22;2309;51.674;8.368;2023-05-19T04:41:14;5.70;99.90
4594;DHT22;2309;51.674;8.368;2023-05-19T04:43:46;5.70;99.90
4594;DHT22;2309;51.674;8.368;2023-05-19T04:46:13;6.00;99.90
4594;DHT22;2309;51.674;8.368;2023-05-19T04:48:40;6.10;99.90
4594;DHT22;2309;51.674;8.368;2023-05-19T04:51:07;6.30;99.90
4594;DHT22;2309;51.674;8.368;2023-05-19T04:53:36;6.40;99.90
4594;DHT22;2309;51.674;8.368;2023-05-19T04:56:07;6.50;99.90
4594;DHT22;2309;51.674;8.368;2023-05-19T04:58:34;6.60;99.90
4594;DHT22;2309;51.674;8.368;2023-05-19T05:01:02;6.80;99.90
4594;DHT22;2309;51.674;8.368;2023-05-19T05:03:29;6.90;99.90
4594;DHT22;2309;51.674;8.368;2023-05-19T05:05:57;6.90;99.90
4594;DHT22;2309;51.674;8.368;2023-05-19T05:08:26;7.00;99.90
4594;DHT22;2309;51.674;8.368;2023-05-19T05:10:54;7.00;99.90
4594;DHT22;2309;51.674;8.368;2023-05-19T05:13:22;7.10;99.90
4594;DHT22;2309;51.674;8.368;2023-05-19T05:15:49;7.10;99.90
4594;DHT22;2309;51.674;8.368;2023-05-19T05:18:17;7.40;99.90
4594;DHT22;2309;51.674;8.368;2023-05-19T05:20:44;7.30;99.90
4594;DHT22;2309;51.674;8.368;2023-05-19T05:23:14;7.60;99.90
4594;DHT22;2309;51.674;8.368;2023-05-19T05:25:43;7.70;99.90
4594;DHT22;2309;51.674;8.368;2023-05-19T05:28:10;7.80;99.90
4594;DHT22;2309;51.674;8.368;2023-05-19T05:30:42;7.90;99.90
4594;DHT22;2309;51.674;8.368;2023-05-19T05:33:07;8.00;99.90
4594;DHT22;2309;51.674;8.368;2023-05-19T05:35:38;8.10;99.90
4594;DHT22;2309;51.674;8.368;2023-05-19T05:38:10;8.20;99.90
4594;DHT22;2309;51.674;8.368;2023-05-19T05:40:39;8.40;99.90
4594;DHT22;2309;51.674;8.368;2023-05-19T05:43:11;8.40;99.90
4594;DHT22;2309;51.674;8.368;2023-05-19T05:45:42;8.60;99.90
4594;DHT22;2309;51.674;8.368;2023-05-19T06:01:32;9.40;99.90
4594;DHT22;2309;51.674;8.368;2023-05-19T06:04:09;9.60;99.90
4594;DHT22;2309;51.674;8.368;2023-05-19T06:06:39;9.70;99.90
4594;DHT22;2309;51.674;8.368;2023-05-19T06:09:06;9.70;99.90
4594;DHT22;2309;51.674;8.368;2023-05-19T06:11:38;9.90;79.20
4594;DHT22;2309;51.674;8.368;2023-05-19T06:14:06;10.10;68.40
4594;DHT22;2309;51.674;8.368;2023-05-19T06:16:35;10.20;61.30
4594;DHT22;2309;51.674;8.368;2023-05-19T06:19:06;10.20;60.20
4594;DHT22;2309;51.674;8.368;2023-05-19T06:21:35;10.30;54.40
4594;DHT22;2309;51.674;8.368;2023-05-19T06:24:03;10.40;50.10
4594;DHT22;2309;51.674;8.368;2023-05-19T06:26:36;10.50;48.50
4594;DHT22;2309;51.674;8.368;2023-05-19T06:29:08;10.60;46.70
4594;DHT22;2309;51.674;8.368;2023-05-19T06:31:37;10.90;44.20
4594;DHT22;2309;51.674;8.368;2023-05-19T06:34:05;11.00;40.70
4594;DHT22;2309;51.674;8.368;2023-05-19T06:36:35;11.00;40.70
4594;DHT22;2309;51.674;8.368;2023-05-19T06:39:06;11.10;41.10
4594;DHT22;2309;51.674;8.368;2023-05-19T06:41:35;11.20;41.10
4594;DHT22;2309;51.674;8.368;2023-05-19T06:44:02;11.30;40.20
4594;DHT22;2309;51.674;8.368;2023-05-19T06:46:32;11.50;34.50
4594;DHT22;2309;51.674;8.368;2023-05-19T06:48:59;11.60;31.80
4594;DHT22;2309;51.674;8.368;2023-05-19T06:51:26;11.70;29.20
4594;DHT22;2309;51.674;8.368;2023-05-19T06:53:54;11.80;22.90
4594;DHT22;2309;51.674;8.368;2023-05-19T06:56:23;11.90;22.30
4594;DHT22;2309;51.674;8.368;2023-05-19T06:58:51;12.00;17.90
4594;DHT22;2309;51.674;8.368;2023-05-19T07:01:18;12.10;19.00
4594;DHT22;2309;51.674;8.368;2023-05-19T07:03:45;12.10;16.60
4594;DHT22;2309;51.674;8.368;2023-05-19T07:06:12;12.00;17.50
4594;DHT22;2309;51.674;8.368;2023-05-19T07:08:40;12.30;18.40
4594;DHT22;2309;51.674;8.368;2023-05-19T07:11:09;12.40;17.70
4594;DHT22;2309;51.674;8.368;2023-05-19T07:13:37;12.60;14.80
4594;DHT22;2309;51.674;8.368;2023-05-19T07:16:09;12.80;12.60
4594;DHT22;2309;51.674;8.368;2023-05-19T07:18:37;12.90;11.60
4594;DHT22;2309;51.674;8.368;2023-05-19T07:21:08;13.00;9.00
4594;DHT22;2309;51.674;8.368;2023-05-19T07:23:36;13.10;9.50
4594;DHT22;2309;51.674;8.368;2023-05-19T07:26:08;13.20;8.80
4594;DHT22;2309;51.674;8.368;2023-05-19T07:28:37;13.30;8.30
4594;DHT22;2309;51.674;8.368;2023-05-19T07:31:04;13.60;3.60
4594;DHT22;2309;51.674;8.368;2023-05-19T07:33:34;13.70;2.80
4594;DHT22;2309;51.674;8.368;2023-05-19T07:36:03;13.80;1.00
4594;DHT22;2309;51.674;8.368;2023-05-19T07:38:33;14.00;1.00
4594;DHT22;2309;51.674;8.368;2023-05-19T07:41:04;14.10;1.00
4594;DHT22;2309;51.674;8.368;2023-05-19T07:43:35;14.20;1.00
4594;DHT22;2309;51.674;8.368;2023-05-19T07:46:07;14.30;1.00
4594;DHT22;2309;51.674;8.368;2023-05-19T07:48:38;14.40;1.00
4594;DHT22;2309;51.674;8.368;2023-05-19T07:51:22;14.60;1.00
4594;DHT22;2309;51.674;8.368;2023-05-19T07:53:46;14.70;1.00
4594;DHT22;2309;51.674;8.368;2023-05-19T07:56:13;14.70;1.00
4594;DHT22;2309;51.674;8.368;2023-05-19T07:58:39;14.70;1.00
4594;DHT22;2309;51.674;8.368;2023-05-19T08:01:06;14.70;1.00
4594;DHT22;2309;51.674;8.368;2023-05-19T08:03:33;14.80;1.00
4594;DHT22;2309;51.674;8.368;2023-05-19T08:06:01;14.90;1.00
4594;DHT22;2309;51.674;8.368;2023-05-19T08:08:28;15.20;1.00
4594;DHT22;2309;51.674;8.368;2023-05-19T08:10:55;15.20;1.00
4594;DHT22;2309;51.674;8.368;2023-05-19T08:13:21;15.50;1.00
4594;DHT22;2309;51.674;8.368;2023-05-19T08:15:48;15.60;1.00
4594;DHT22;2309;51.674;8.368;2023-05-19T08:18:15;15.80;1.00
4594;DHT22;2309;51.674;8.368;2023-05-19T08:20:42;15.80;1.00
4594;DHT22;2309;51.674;8.368;2023-05-19T08:23:11;15.90;1.00
4594;DHT22;2309;51.674;8.368;2023-05-19T08:25:37;15.90;1.00
4594;DHT22;2309;51.674;8.368;2023-05-19T08:28:05;16.10;1.00
4594;DHT22;2309;51.674;8.368;2023-05-19T08:30:32;16.10;1.00
4594;DHT22;2309;51.674;8.368;2023-05-19T08:32:59;16.30;1.00
4594;DHT22;2309;51.674;8.368;2023-05-19T08:35:26;16.50;1.00
4594;DHT22;2309;51.674;8.368;2023-05-19T08:37:52;16.50;1.00
4594;DHT22;2309;51.674;8.368;2023-05-19T08:40:19;16.70;1.00
4594;DHT22;2309;51.674;8.368;2023-05-19T08:42:46;16.90;1.00
4594;DHT22;2309;51.674;8.368;2023-05-19T08:45:13;17.10;1.00
4594;DHT22;2309;51.674;8.368;2023-05-19T08:47:40;17.20;1.00
4594;DHT22;2309;51.674;8.368;2023-05-19T08:50:09;17.20;1.00
4594;DHT22;2309;51.674;8.368;2023-05-19T08:52:41;17.30;1.00
4594;DHT22;2309;51.674;8.368;2023-05-19T08:55:08;17.60;1.00
4594;DHT22;2309;51.674;8.368;2023-05-19T08:57:35;17.50;1.00
4594;DHT22;2309;51.674;8.368;2023-05-19T09:00:03;17.40;1.00
4594;DHT22;2309;51.674;8.368;2023-05-19T09:02:32;17.30;1.00
4594;DHT22;2309;51.674;8.368;2023-05-19T09:05:03;17.40;1.00
4594;DHT22;2309;51.674;8.368;2023-05-19T09:07:45;17.80;1.00
4594;DHT22;2309;51.674;8.368;2023-05-19T09:10:10;18.00;1.00
4594;DHT22;2309;51.674;8.368;2023-05-19T09:12:39;17.90;1.00
4594;DHT22;2309;51.674;8.368;2023-05-19T09:15:07;18.20;1.00
4594;DHT22;2309;51.674;8.368;2023-05-19T09:17:34;18.40;1.00
4594;DHT22;2309;51.674;8.368;2023-05-19T09:20:01;18.80;1.00
4594;DHT22;2309;51.674;8.368;2023-05-19T09:22:30;18.80;1.00
4594;DHT22;2309;51.674;8.368;2023-05-19T09:24:58;18.80;1.00
4594;DHT22;2309;51.674;8.368;2023-05-19T09:27:28;19.30;1.00
4594;DHT22;2309;51.674;8.368;2023-05-19T09:29:54;19.40;1.00
4594;DHT22;2309;51.674;8.368;2023-05-19T09:32:24;19.40;1.00
4594;DHT22;2309;51.674;8.368;2023-05-19T09:34:49;19.00;1.00
4594;DHT22;2309;51.674;8.368;2023-05-19T09:56:07;20.30;1.00
4594;DHT22;2309;51.674;8.368;2023-05-19T09:58:34;20.20;1.00
4594;DHT22;2309;51.674;8.368;2023-05-19T10:01:02;20.30;1.00
4594;DHT22;2309;51.674;8.368;2023-05-19T10:03:31;20.50;1.00
4594;DHT22;2309;51.674;8.368;2023-05-19T10:05:57;20.60;1.00
4594;DHT22;2309;51.674;8.368;2023-05-19T10:08:25;20.90;1.00
4594;DHT22;2309;51.674;8.368;2023-05-19T10:10:55;20.90;1.00
4594;DHT22;2309;51.674;8.368;2023-05-19T10:13:23;21.30;1.00
4594;DHT22;2309;51.674;8.368;2023-05-19T10:15:52;21.70;1.00
4594;DHT22;2309;51.674;8.368;2023-05-19T10:18:19;21.70;1.00
4594;DHT22;2309;51.674;8.368;2023-05-19T10:20:49;22.00;1.00
4594;DHT22;2309;51.674;8.368;2023-05-19T10:23:17;21.60;1.00
4594;DHT22;2309;51.674;8.368;2023-05-19T10:25:46;21.70;1.00
4594;DHT22;2309;51.674;8.368;2023-05-19T10:28:14;21.80;1.00
4594;DHT22;2309;51.674;8.368;2023-05-19T10:30:43;22.00;1.00
4594;DHT22;2309;51.674;8.368;2023-05-19T10:33:12;22.40;1.00
4594;DHT22;2309;51.674;8.368;2023-05-19T10:36:14;22.10;1.00
4594;DHT22;2309;51.674;8.368;2023-05-19T10:38:10;21.30;1.00
4594;DHT22;2309;51.674;8.368;2023-05-19T10:40:36;20.90;1.00
4594;DHT22;2309;51.674;8.368;2023-05-19T10:43:20;21.30;1.00
4594;DHT22;2309;51.674;8.368;2023-05-19T10:45:47;22.10;1.00
4594;DHT22;2309;51.674;8.368;2023-05-19T10:48:24;22.60;1.00
4594;DHT22;2309;51.674;8.368;2023-05-19T10:50:52;22.90;1.00
4594;DHT22;2309;51.674;8.368;2023-05-19T10:53:20;22.70;1.00
4594;DHT22;2309;51.674;8.368;2023-05-19T10:55:51;23.10;1.00
4594;DHT22;2309;51.674;8.368;2023-05-19T10:58:48;23.10;1.00
4594;DHT22;2309;51.674;8.368;2023-05-19T11:00:45;22.80;1.00
4594;DHT22;2309;51.674;8.368;2023-05-19T11:03:15;24.20;1.00
4594;DHT22;2309;51.674;8.368;2023-05-19T11:05:40;24.90;1.00
4594;DHT22;2309;51.674;8.368;2023-05-19T11:08:09;24.80;1.00
4594;DHT22;2309;51.674;8.368;2023-05-19T11:10:42;25.20;1.00
4594;DHT22;2309;51.674;8.368;2023-05-19T11:13:17;24.80;1.00
4594;DHT22;2309;51.674;8.368;2023-05-19T11:15:38;24.10;1.00
4594;DHT22;2309;51.674;8.368;2023-05-19T11:18:08;24.00;1.00
4594;DHT22;2309;51.674;8.368;2023-05-19T11:20:49;25.60;1.00
4594;DHT22;2309;51.674;8.368;2023-05-19T11:23:16;26.30;1.00
4594;DHT22;2309;51.674;8.368;2023-05-19T11:25:45;27.20;1.00
4594;DHT22;2309;51.674;8.368;2023-05-19T11:30:58;26.90;1.00
4594;DHT22;2309;51.674;8.368;2023-05-19T11:33:27;26.40;1.00
4594;DHT22;2309;51.674;8.368;2023-05-19T11:35:55;26.00;1.00
4594;DHT22;2309;51.674;8.368;2023-05-19T11:38:23;26.50;1.00
4594;DHT22;2309;51.674;8.368;2023-05-19T11:40:51;27.20;1.00
4594;DHT22;2309;51.674;8.368;2023-05-19T11:43:22;28.00;1.00
4594;DHT22;2309;51.674;8.368;2023-05-19T11:45:49;28.30;1.00
4594;DHT22;2309;51.674;8.368;2023-05-19T11:48:21;28.70;1.00
4594;DHT22;2309;51.674;8.368;2023-05-19T11:50:45;28.80;1.00
4594;DHT22;2309;51.674;8.368;2023-05-19T11:53:16;28.80;1.00
4594;DHT22;2309;51.674;8.368;2023-05-19T11:55:44;29.20;1.00
4594;DHT22;2309;51.674;8.368;2023-05-19T11:58:12;28.60;1.00
4594;DHT22;2309;51.674;8.368;2023-05-19T12:00:39;28.60;1.00
4594;DHT22;2309;51.674;8.368;2023-05-19T12:03:09;29.00;1.00
4594;DHT22;2309;51.674;8.368;2023-05-19T12:08:39;29.00;1.00
4594;DHT22;2309;51.674;8.368;2023-05-19T12:11:07;29.30;1.00
4594;DHT22;2309;51.674;8.368;2023-05-19T12:16:05;29.20;1.00
4594;DHT22;2309;51.674;8.368;2023-05-19T12:58:24;30.40;1.00
4594;DHT22;2309;51.674;8.368;2023-05-19T13:01:06;29.50;1.00
4594;DHT22;2309;51.674;8.368;2023-05-19T13:42:56;27.10;1.00
4594;DHT22;2309;51.674;8.368;2023-05-19T13:56:06;28.70;1.00
4594;DHT22;2309;51.674;8.368;2023-05-19T13:58:44;27.60;1.00
4594;DHT22;2309;51.674;8.368;2023-05-19T14:01:11;27.60;1.00
4594;DHT22;2309;51.674;8.368;2023-05-19T14:03:38;28.70;1.00
4594;DHT22;2309;51.674;8.368;2023-05-19T14:06:04;31.10;1.00
4594;DHT22;2309;51.674;8.368;2023-05-19T14:08:31;31.10;1.00
4594;DHT22;2309;51.674;8.368;2023-05-19T14:10:58;31.90;1.00
4594;DHT22;2309;51.674;8.368;2023-05-19T14:13:25;32.10;1.00
4594;DHT22;2309;51.674;8.368;2023-05-19T14:15:52;31.90;1.00
4594;DHT22;2309;51.674;8.368;2023-05-19T14:18:19;30.70;1.00
4594;DHT22;2309;51.674;8.368;2023-05-19T14:20:46;28.50;1.00
4594;DHT22;2309;51.674;8.368;2023-05-19T14:23:13;27.10;1.00
4594;DHT22;2309;51.674;8.368;2023-05-19T14:25:41;26.60;1.00
4594;DHT22;2309;51.674;8.368;2023-05-19T14:28:08;26.20;1.00
4594;DHT22;2309;51.674;8.368;2023-05-19T14:30:35;25.40;1.00
4594;DHT22;2309;51.674;8.368;2023-05-19T14:33:02;26.00;1.00
4594;DHT22;2309;51.674;8.368;2023-05-19T14:35:31;27.90;1.00
4594;DHT22;2309;51.674;8.368;2023-05-19T14:37:58;30.30;1.00
4594;DHT22;2309;51.674;8.368;2023-05-19T14:40:25;31.50;1.00
4594;DHT22;2309;51.674;8.368;2023-05-19T14:42:52;30.60;1.00
4594;DHT22;2309;51.674;8.368;2023-05-19T14:45:19;28.50;1.00
4594;DHT22;2309;51.674;8.368;2023-05-19T14:47:46;26.60;1.00
4594;DHT22;2309;51.674;8.368;2023-05-19T14:50:13;25.40;1.00
4594;DHT22;2309;51.674;8.368;2023-05-19T14:52:39;25.30;1.00
4594;DHT22;2309;51.674;8.368;2023-05-19T14:55:06;25.20;1.00
4594;DHT22;2309;51.674;8.368;2023-05-19T14:57:33;25.50;1.00
4594;DHT22;2309;51.674;8.368;2023-05-19T15:00:00;28.70;1.00
4594;DHT22;2309;51.674;8.368;2023-05-19T15:02:27;29.90;1.00
4594;DHT22;2309;51.674;8.368;2023-05-19T15:04:54;31.80;1.00
4594;DHT22;2309;51.674;8.368;2023-05-19T15:07:21;32.70;1.00
4594;DHT22;2309;51.674;8.368;2023-05-19T15:09:49;33.10;1.00
4594;DHT22;2309;51.674;8.368;2023-05-19T15:12:16;34.20;1.00
4594;DHT22;2309;51.674;8.368;2023-05-19T15:14:43;34.50;1.00
4594;DHT22;2309;51.674;8.368;2023-05-19T15:17:09;35.10;1.00
4594;DHT22;2309;51.674;8.368;2023-05-19T15:19:36;35.10;1.00
4594;DHT22;2309;51.674;8.368;2023-05-19T15:22:05;33.40;1.00
4594;DHT22;2309;51.674;8.368;2023-05-19T15:24:32;32.50;1.00
4594;DHT22;2309;51.674;8.368;2023-05-19T15:26:59;30.50;1.00
4594;DHT22;2309;51.674;8.368;2023-05-19T15:29:26;30.90;1.00
4594;DHT22;2309;51.674;8.368;2023-05-19T15:31:53;32.10;1.00
4594;DHT22;2309;51.674;8.368;2023-05-19T15:34:21;32.90;1.00
4594;DHT22;2309;51.674;8.368;2023-05-19T15:36:47;32.30;1.00
4594;DHT22;2309;51.674;8.368;2023-05-19T15:39:14;31.40;1.00
4594;DHT22;2309;51.674;8.368;2023-05-19T15:41:41;31.00;1.00
4594;DHT22;2309;51.674;8.368;2023-05-19T15:44:09;30.10;1.00
4594;DHT22;2309;51.674;8.368;2023-05-19T15:46:36;29.70;1.00
4594;DHT22;2309;51.674;8.368;2023-05-19T15:49:05;29.50;1.00
4594;DHT22;2309;51.674;8.368;2023-05-19T15:51:32;27.40;1.00
4594;DHT22;2309;51.674;8.368;2023-05-19T15:53:59;27.20;1.00
4594;DHT22;2309;51.674;8.368;2023-05-19T15:56:25;26.10;1.00
4594;DHT22;2309;51.674;8.368;2023-05-19T15:58:52;25.40;1.00
4594;DHT22;2309;51.674;8.368;2023-05-19T16:01:19;24.60;1.00
4594;DHT22;2309;51.674;8.368;2023-05-19T16:03:46;24.70;1.00
4594;DHT22;2309;51.674;8.368;2023-05-19T16:06:13;26.10;1.00
4594;DHT22;2309;51.674;8.368;2023-05-19T16:08:40;29.70;1.00
4594;DHT22;2309;51.674;8.368;2023-05-19T16:11:07;30.60;1.00
4594;DHT22;2309;51.674;8.368;2023-05-19T16:13:34;32.50;1.00
4594;DHT22;2309;51.674;8.368;2023-05-19T16:16:01;33.40;1.00
4594;DHT22;2309;51.674;8.368;2023-05-19T16:18:28;33.90;1.00
4594;DHT22;2309;51.674;8.368;2023-05-19T16:20:54;33.20;1.00
4594;DHT22;2309;51.674;8.368;2023-05-19T16:23:22;33.50;1.00
4594;DHT22;2309;51.674;8.368;2023-05-19T16:25:49;33.50;1.00
4594;DHT22;2309;51.674;8.368;2023-05-19T16:28:16;32.10;1.00
4594;DHT22;2309;51.674;8.368;2023-05-19T16:30:44;32.10;1.00
4594;DHT22;2309;51.674;8.368;2023-05-19T16:33:11;31.70;1.00
4594;DHT22;2309;51.674;8.368;2023-05-19T16:35:38;30.70;1.00
4594;DHT22;2309;51.674;8.368;2023-05-19T16:38:05;29.30;1.00
4594;DHT22;2309;51.674;8.368;2023-05-19T16:40:32;28.20;1.00
4594;DHT22;2309;51.674;8.368;2023-05-19T16:42:59;31.10;1.00
4594;DHT22;2309;51.674;8.368;2023-05-19T16:45:26;31.20;1.00
4594;DHT22;2309;51.674;8.368;2023-05-19T16:47:53;33.20;1.00
4594;DHT22;2309;51.674;8.368;2023-05-19T16:50:20;33.00;1.00
4594;DHT22;2309;51.674;8.368;2023-05-19T16:52:46;34.10;1.00
4594;DHT22;2309;51.674;8.368;2023-05-19T16:55:13;34.00;1.00
4594;DHT22;2309;51.674;8.368;2023-05-19T16:57:42;33.80;1.00
4594;DHT22;2309;51.674;8.368;2023-05-19T17:00:09;34.10;1.00
4594;DHT22;2309;51.674;8.368;2023-05-19T17:02:36;34.30;1.00
4594;DHT22;2309;51.674;8.368;2023-05-19T17:05:03;32.00;1.00
4594;DHT22;2309;51.674;8.368;2023-05-19T17:07:31;29.40;1.00
4594;DHT22;2309;51.674;8.368;2023-05-19T17:09:58;30.00;1.00
4594;DHT22;2309;51.674;8.368;2023-05-19T17:12:26;31.70;1.00
4594;DHT22;2309;51.674;8.368;2023-05-19T17:14:53;32.30;1.00
4594;DHT22;2309;51.674;8.368;2023-05-19T17:17:20;29.20;1.00
4594;DHT22;2309;51.674;8.368;2023-05-19T17:19:47;26.90;1.00
4594;DHT22;2309;51.674;8.368;2023-05-19T17:22:14;26.00;1.00
4594;DHT22;2309;51.674;8.368;2023-05-19T17:24:41;25.30;1.00
4594;DHT22;2309;51.674;8.368;2023-05-19T17:27:07;26.30;1.00
4594;DHT22;2309;51.674;8.368;2023-05-19T17:29:34;27.00;1.00
4594;DHT22;2309;51.674;8.368;2023-05-19T17:32:01;27.60;1.00
4594;DHT22;2309;51.674;8.368;2023-05-19T17:34:28;27.20;1.00
4594;DHT22;2309;51.674;8.368;2023-05-19T17:36:55;27.50;1.00
4594;DHT22;2309;51.674;8.368;2023-05-19T17:39:22;28.10;1.00
4594;DHT22;2309;51.674;8.368;2023-05-19T17:41:49;29.40;1.00
4594;DHT22;2309;51.674;8.368;2023-05-19T17:44:15;29.80;1.00
4594;DHT22;2309;51.674;8.368;2023-05-19T17:46:42;28.90;1.00
4594;DHT22;2309;51.674;8.368;2023-05-19T17:49:09;28.10;1.00
4594;DHT22;2309;51.674;8.368;2023-05-19T17:51:37;27.40;1.00
4594;DHT22;2309;51.674;8.368;2023-05-19T17:54:09;28.30;1.00
4594;DHT22;2309;51.674;8.368;2023-05-19T17:56:39;29.60;1.00
4594;DHT22;2309;51.674;8.368;2023-05-19T17:59:05;29.30;1.00
4594;DHT22;2309;51.674;8.368;2023-05-19T18:01:36;26.60;1.00
4594;DHT22;2309;51.674;8.368;2023-05-19T18:04:03;26.60;1.00
4594;DHT22;2309;51.674;8.368;2023-05-19T18:06:32;27.10;1.00
4594;DHT22;2309;51.674;8.368;2023-05-19T18:09:05;26.20;1.00
4594;DHT22;2309;51.674;8.368;2023-05-19T18:11:35;26.00;1.00
4594;DHT22;2309;51.674;8.368;2023-05-19T18:14:05;26.90;1.00
4594;DHT22;2309;51.674;8.368;2023-05-19T18:16:34;26.00;1.00
4594;DHT22;2309;51.674;8.368;2023-05-19T18:19:01;26.80;1.00
4594;DHT22;2309;51.674;8.368;2023-05-19T18:21:34;27.30;1.00
4594;DHT22;2309;51.674;8.368;2023-05-19T18:24:06;27.40;1.00
4594;DHT22;2309;51.674;8.368;2023-05-19T18:26:33;26.60;1.00
4594;DHT22;2309;51.674;8.368;2023-05-19T18:29:01;26.50;1.00
4594;DHT22;2309;51.674;8.368;2023-05-19T18:31:29;26.50;1.00
4594;DHT22;2309;51.674;8.368;2023-05-19T18:33:56;26.20;1.00
4594;DHT22;2309;51.674;8.368;2023-05-19T18:36:23;26.00;1.00
4594;DHT22;2309;51.674;8.368;2023-05-19T18:38:50;25.70;1.00
4594;DHT22;2309;51.674;8.368;2023-05-19T18:41:17;25.50;1.00
4594;DHT22;2309;51.674;8.368;2023-05-19T18:43:44;25.10;1.00
4594;DHT22;2309;51.674;8.368;2023-05-19T18:46:10;24.20;1.00
4594;DHT22;2309;51.674;8.368;2023-05-19T18:48:38;23.90;1.00
4594;DHT22;2309;51.674;8.368;2023-05-19T18:51:04;22.70;1.00
4594;DHT22;2309;51.674;8.368;2023-05-19T18:53:33;22.30;1.00